Seatac, WA

04:16 PM PST on februarie 10, 2016 (GMT -0800)
Seattle-Tacoma International | | Change Station
CLOSE
Current Station
Aeroport
Location: Seattle,
Elevation: 433 ft
Nearby Weather Stations

Elev 433 ft 47.44 °N, 122.31 °W | Updated 23 minutes ago

Cer acoperit
Cer acoperit
56 °F
Feels Like 56 °F
N
4
Vânt variabil Vânt from SSV

astăzi
High -- | Low -- °F
--% Chance of Precip.
Ieri
High -- | Low -- °F
Precip. -- inch
Presiunea 30.26 inch
Vizibilitatea 10.0 mile
Nori Cer în general noros 3600 ft
Cer în general noros 6000 ft
Punctul de rouă 48 °F
Umiditatea 75%
Precipitaţii 0.13 inch
Adâncimea zăpezii Not available.
7:23 AM 5:24 PM
Semilună în creştere, 8% visible
METAR KSEA 102353Z 20003KT 10SM BKN036 BKN060 13/09 A3024 RMK AO2 RAB15E27 SLP247 P0000 60012 T01330089 10133 20089 55002
Presiunea 30.26 inch
Vizibilitatea 10.0 mile
Nori Cer în general noros 3600 ft
Cer în general noros 6000 ft
Punctul de rouă 48 °F
Umiditatea 75%
Precipitaţii 0.13 inch
Adâncimea zăpezii Not available.
7:23 AM 5:24 PM
Semilună în creştere, 8% visible
METAR KSEA 102353Z 20003KT 10SM BKN036 BKN060 13/09 A3024 RMK AO2 RAB15E27 SLP247 P0000 60012 T01330089 10133 20089 55002

10-Day Weather Forecast

Almanac

Astronomie

Feb. 10, 2016 Răsărit Apus
Timpul Actual
Crepusculul Civil
Crepusculul nautic
Răsărit Astronomic
Luna
Durata zilei lumină
Lungimea zilei
Tomorrow will be .
, % of the Moon is Illuminated

Extremele de azi

State Highs State Lows

Community

WunderPhotos

Upload Photos

1,891,944 photos uploaded!

WunderBlog® & News

Nearby

Calitatea aerului

  Calitatea aerului Index de calitate a aerului Poluat
Not available.

Adâncimea zapezii

Station Depth Elevation

Earthquake Activity

Oraş Distance Mag. Time & Date
Minimum magnitude displayed is 2.5.

Coastal Water Temperatures

Locul Temperatura

Stations

Nearby Weather Stations

Locaţia staţiei Temp Vânt rece Punctul de rouă Umiditatea Vânt Precip. Elev Actualizare Type
                   

Watches & Warnings

There are currently no watches in effect.